Time;durP1;ratioP1;P1;durP2;ratioP2;P2;SDS_P1;SDS_P2;PMS_P1;PMS_P2;Temp;Humidity;BMP_temperature;BMP_pressure;BME280_temperature;BME280_humidity;BME280_pressure;Samples;Min_cycle;Max_cycle;Signal;HPM_P1;HPM_P2
2022/06/02 00:01:04;;;;;;;;;15.75;14.75;;;;;18.19;68.63;100101.50;5057043;28;45659;-71
2022/06/02 00:03:58;;;;;;;;;13.00;13.00;;;;;18.16;68.56;100104.16;5056882;28;45366;-71
2022/06/02 00:06:46;;;;;;;;;12.75;12.25;;;;;18.11;68.56;100098.91;5054266;28;45218;-71
2022/06/02 00:09:42;;;;;;;;;15.25;14.50;;;;;18.06;68.53;100104.25;5057262;28;45232;-71
2022/06/02 00:12:14;;;;;;;;;15.50;15.50;;;;;18.04;68.01;100102.47;5056751;28;45382;-70
2022/06/02 00:14:48;;;;;;;;;17.25;16.00;;;;;17.97;68.28;100092.88;5056699;28;45543;-71
2022/06/02 00:17:41;;;;;;;;;15.75;15.75;;;;;17.91;69.26;100091.13;5056885;28;46339;-70
2022/06/02 00:20:08;;;;;;;;;19.50;17.50;;;;;17.89;69.18;100092.91;5056978;28;45417;-70
2022/06/02 00:23:04;;;;;;;;;19.25;17.25;;;;;17.84;69.41;100092.06;5056914;28;45501;-71
2022/06/02 00:25:40;;;;;;;;;20.00;18.75;;;;;17.80;69.58;100088.53;5056617;28;45408;-70
2022/06/02 00:28:27;;;;;;;;;16.00;14.25;;;;;17.76;69.56;100088.56;5056825;28;45433;-71
2022/06/02 00:31:02;;;;;;;;;20.25;19.75;;;;;17.72;69.91;100092.97;5057042;28;45520;-71
2022/06/02 00:33:55;;;;;;;;;16.00;15.50;;;;;17.68;70.28;100086.84;5056261;28;45422;-71
2022/06/02 00:37:03;;;;;;;;;18.00;16.50;;;;;17.66;70.09;100082.47;5056897;28;45492;-71
2022/06/02 00:39:32;;;;;;;;;15.75;15.75;;;;;17.63;70.50;100079.84;5056639;28;45422;-71
2022/06/02 00:42:04;;;;;;;;;18.00;17.25;;;;;17.60;70.29;100071.94;5056973;28;45286;-71
2022/06/02 00:44:33;;;;;;;;;17.50;16.75;;;;;17.57;70.14;100070.19;5056665;28;45264;-71
2022/06/02 00:47:06;;;;;;;;;18.50;18.25;;;;;17.58;70.45;100069.28;5056480;28;45366;-71
2022/06/02 00:50:03;;;;;;;;;20.50;19.00;;;;;17.58;69.99;100068.44;5056636;28;45325;-72
2022/06/02 00:52:49;;;;;;;;;16.50;16.25;;;;;17.60;70.12;100067.53;5056860;28;45452;-72
2022/06/02 00:58:12;;;;;;;;;16.75;16.50;;;;;17.50;70.09;100073.75;5056120;28;45462;-71
2022/06/02 01:00:41;;;;;;;;;19.50;18.00;;;;;17.47;70.04;100068.50;5058458;28;45354;-71
2022/06/02 01:03:12;;;;;;;;;18.00;17.00;;;;;17.42;70.25;100075.56;5060216;28;45211;-71
2022/06/02 01:06:10;;;;;;;;;19.00;18.25;;;;;17.40;69.93;100069.41;5059242;28;46366;-71
2022/06/02 01:08:45;;;;;;;;;19.50;19.50;;;;;17.39;70.13;100070.28;5059575;28;45429;-71
2022/06/02 01:11:34;;;;;;;;;19.00;18.25;;;;;17.39;70.05;100065.00;5059750;28;45517;-70
2022/06/02 01:14:15;;;;;;;;;19.00;18.00;;;;;17.36;70.06;100073.81;5059712;28;45329;-71
2022/06/02 01:16:44;;;;;;;;;21.00;20.50;;;;;17.36;69.92;100062.41;5059409;28;45538;-70
2022/06/02 01:19:44;;;;;;;;;19.00;17.50;;;;;17.34;69.42;100058.88;5059561;28;45397;-71
2022/06/02 01:22:13;;;;;;;;;19.75;19.25;;;;;17.28;70.05;100065.94;5059522;28;45364;-71
2022/06/02 01:25:08;;;;;;;;;18.25;17.25;;;;;17.24;70.58;100047.50;5059718;28;45307;-71
2022/06/02 01:27:54;;;;;;;;;23.00;20.25;;;;;17.20;70.60;100041.34;5059296;28;46039;-71
2022/06/02 01:30:46;;;;;;;;;18.00;18.00;;;;;17.20;70.47;100051.03;5059257;28;45472;-71
2022/06/02 01:33:26;;;;;;;;;20.00;18.25;;;;;17.21;70.48;100047.50;5059155;28;45562;-70
2022/06/02 01:36:10;;;;;;;;;18.75;18.50;;;;;17.20;70.64;100038.72;5059310;28;45592;-71
2022/06/02 01:38:39;;;;;;;;;19.00;16.75;;;;;17.15;70.65;100040.53;5058910;28;45492;-71
2022/06/02 01:41:17;;;;;;;;;17.75;17.00;;;;;17.06;70.20;100043.19;5058900;28;45497;-71
2022/06/02 01:43:54;;;;;;;;;17.50;17.00;;;;;16.99;70.97;100050.28;5059255;28;46001;-70
2022/06/02 01:46:25;;;;;;;;;17.00;15.25;;;;;16.96;71.00;100044.13;5059441;28;45532;-72
2022/06/02 01:49:13;;;;;;;;;18.00;18.00;;;;;16.93;71.29;100046.75;5059090;28;46187;-71
2022/06/02 01:51:50;;;;;;;;;17.00;16.00;;;;;16.88;69.69;100045.00;5059106;28;45441;-72
2022/06/02 01:54:28;;;;;;;;;20.50;19.00;;;;;16.74;71.55;100041.53;5058951;28;45429;-71
2022/06/02 01:57:10;;;;;;;;;21.75;21.00;;;;;16.75;71.97;100045.03;5059148;28;45303;-71
2022/06/02 02:00:01;;;;;;;;;18.75;18.00;;;;;16.72;72.01;100047.69;5058658;28;46105;-71
2022/06/02 02:02:47;;;;;;;;;22.00;19.25;;;;;16.69;72.18;100049.47;5059059;28;45544;-71
2022/06/02 02:05:29;;;;;;;;;21.75;20.75;;;;;16.71;72.32;100041.53;5058753;28;45516;-71
2022/06/02 02:08:13;;;;;;;;;18.75;18.00;;;;;16.73;72.14;100047.66;5058934;28;45484;-70
2022/06/02 02:10:56;;;;;;;;;18.50;17.25;;;;;16.76;72.22;100047.66;5058414;28;45687;-70
2022/06/02 02:13:36;;;;;;;;;21.00;17.25;;;;;16.80;72.13;100056.47;5058064;28;45480;-71
2022/06/02 02:16:23;;;;;;;;;22.00;20.75;;;;;16.79;72.02;100057.31;5058753;28;45268;-71
2022/06/02 02:18:49;;;;;;;;;19.00;18.75;;;;;16.78;71.89;100050.31;5058972;28;45446;-71
2022/06/02 02:21:54;;;;;;;;;19.25;18.25;;;;;16.76;71.30;100050.31;5058298;28;45847;-71
2022/06/02 02:24:28;;;;;;;;;19.25;18.00;;;;;16.72;71.24;100055.59;5058530;28;45516;-71
2022/06/02 02:27:07;;;;;;;;;19.50;18.75;;;;;16.69;71.48;100057.38;5058447;28;45449;-72
2022/06/02 02:30:08;;;;;;;;;16.50;15.25;;;;;16.68;71.84;100067.91;5058605;28;45426;-71
2022/06/02 02:32:49;;;;;;;;;18.00;17.75;;;;;16.69;71.85;100057.38;5057995;28;46090;-71
2022/06/02 02:35:25;;;;;;;;;19.50;19.25;;;;;16.63;71.43;100051.22;5058120;28;45505;-71
2022/06/02 02:37:59;;;;;;;;;18.25;18.00;;;;;16.65;71.94;100066.19;5058434;28;45409;-71
2022/06/02 02:40:37;;;;;;;;;17.75;17.50;;;;;16.66;72.76;100059.13;5058617;28;45438;-70
2022/06/02 02:43:48;;;;;;;;;19.50;19.50;;;;;16.62;72.80;100065.31;5056885;28;46179;-71
2022/06/02 02:46:26;;;;;;;;;19.00;18.25;;;;;16.22;72.37;99994.22;5058110;28;45434;-71
2022/06/02 02:49:10;;;;;;;;;18.50;17.50;;;;;16.61;71.94;100069.72;5058229;28;45572;-71
2022/06/02 02:51:54;;;;;;;;;20.00;19.25;;;;;16.47;71.99;100043.38;5057051;28;45461;-71
2022/06/02 02:54:29;;;;;;;;;20.00;20.00;;;;;16.59;71.79;100068.84;5057964;28;46005;-71
2022/06/02 02:57:09;;;;;;;;;15.00;15.00;;;;;16.59;71.75;100062.66;5057863;28;45540;-71
2022/06/02 03:00:04;;;;;;;;;20.50;18.25;;;;;16.53;72.05;100067.94;5058069;28;45399;-71
2022/06/02 03:02:36;;;;;;;;;19.00;18.00;;;;;16.44;72.01;100053.91;5057825;28;45584;-70
2022/06/02 03:05:08;;;;;;;;;20.25;19.00;;;;;16.47;72.22;100060.91;5057970;28;46190;-70
2022/06/02 03:07:34;;;;;;;;;21.75;19.25;;;;;16.52;72.34;100074.13;5057745;28;45487;-70
2022/06/02 03:10:30;;;;;;;;;19.00;18.00;;;;;16.48;72.59;100076.75;5058103;28;45383;-71
2022/06/02 03:13:10;;;;;;;;;15.50;15.50;;;;;16.48;72.08;100075.88;5058168;28;45610;-72
2022/06/02 03:15:43;;;;;;;;;20.00;19.50;;;;;16.44;71.79;100075.00;5057676;28;46148;-71
2022/06/02 03:18:28;;;;;;;;;18.00;17.75;;;;;16.38;72.20;100080.28;5057675;28;45370;-72
2022/06/02 03:21:14;;;;;;;;;17.75;17.75;;;;;16.35;72.48;100084.66;5057804;28;45395;-71
2022/06/02 03:24:02;;;;;;;;;19.50;18.75;;;;;16.35;72.50;100089.94;5056752;28;45398;-71
2022/06/02 03:26:55;;;;;;;;;22.00;20.00;;;;;16.31;72.10;100086.44;5057247;28;46105;-70
2022/06/02 03:29:40;;;;;;;;;19.75;18.00;;;;;16.20;72.47;100059.22;5057180;28;45437;-71
2022/06/02 03:32:24;;;;;;;;;20.00;19.25;;;;;16.27;73.02;100069.75;5057655;28;45298;-71
2022/06/02 03:34:56;;;;;;;;;18.50;18.50;;;;;16.27;72.93;100077.66;5057779;28;45266;-70
2022/06/02 03:37:43;;;;;;;;;19.50;19.50;;;;;16.24;72.83;100068.88;5057410;28;45355;-70
2022/06/02 03:40:28;;;;;;;;;18.75;18.00;;;;;16.17;72.12;100070.63;5057434;28;45336;-70
2022/06/02 03:43:13;;;;;;;;;17.25;17.25;;;;;16.07;72.17;100075.00;5057550;28;45468;-71
2022/06/02 03:46:12;;;;;;;;;19.25;17.25;;;;;16.02;72.44;100079.41;5057534;28;45268;-70
2022/06/02 03:48:46;;;;;;;;;21.50;20.00;;;;;16.00;72.71;100075.91;5057021;28;45342;-70
2022/06/02 03:51:18;;;;;;;;;16.75;16.00;;;;;15.99;73.37;100075.91;5057338;28;45513;-71
2022/06/02 03:54:10;;;;;;;;;21.00;19.25;;;;;15.98;73.39;100080.31;5057223;28;45308;-70
2022/06/02 03:56:53;;;;;;;;;20.00;18.25;;;;;15.97;73.04;100086.44;5057684;28;45458;-70
2022/06/02 03:59:46;;;;;;;;;21.00;19.00;;;;;15.92;72.90;100080.31;5057108;28;45475;-70
2022/06/02 04:02:16;;;;;;;;;17.75;17.00;;;;;15.75;72.18;100067.09;5056845;28;45220;-70
2022/06/02 04:05:03;;;;;;;;;21.00;20.00;;;;;15.78;73.14;100092.59;5057125;28;45725;-70
2022/06/02 04:08:04;;;;;;;;;18.75;18.75;;;;;15.78;73.55;100093.44;5057017;28;45437;-70
2022/06/02 04:10:42;;;;;;;;;23.75;23.50;;;;;15.81;73.86;100093.44;5049265;28;45489;-71
2022/06/02 04:13:43;;;;;;;;;21.50;20.00;;;;;15.82;74.37;100091.72;5056994;28;46239;-71
2022/06/02 04:16:23;;;;;;;;;21.50;21.50;;;;;15.85;74.26;100087.28;5044913;28;45598;-71
2022/06/02 04:20:34;;;;;;;;;19.25;19.00;;;;;15.81;74.07;100077.63;5057119;28;45330;-70
2022/06/02 04:22:27;;;;;;;;;22.25;20.75;;;;;15.79;74.24;100089.06;5056583;28;45990;-71
2022/06/02 04:25:17;;;;;;;;;21.50;20.50;;;;;15.79;74.44;100086.44;5056867;28;45228;-70
2022/06/02 04:28:03;;;;;;;;;20.50;20.50;;;;;15.83;74.40;100089.06;5056749;28;45564;-70
2022/06/02 04:31:06;;;;;;;;;20.50;19.00;;;;;15.91;73.89;100096.97;5056991;28;46073;-70
2022/06/02 04:33:42;;;;;;;;;16.75;16.75;;;;;15.95;73.28;100097.84;5054980;28;46051;-71
2022/06/02 04:36:25;;;;;;;;;17.25;16.75;;;;;15.97;73.28;100098.72;5059669;28;45755;-70
2022/06/02 04:39:02;;;;;;;;;21.00;19.25;;;;;16.00;72.93;100098.75;5060332;28;45551;-71
2022/06/02 04:41:48;;;;;;;;;22.50;19.75;;;;;15.97;72.91;100096.09;5060568;28;45430;-70
2022/06/02 04:44:34;;;;;;;;;23.75;22.75;;;;;16.07;72.93;100092.59;5060056;28;45503;-71
2022/06/02 04:47:03;;;;;;;;;21.50;20.75;;;;;16.18;72.80;100092.59;5060111;28;45608;-70
2022/06/02 04:49:40;;;;;;;;;18.50;18.50;;;;;16.24;71.92;100080.28;5060107;28;45378;-70
2022/06/02 04:52:27;;;;;;;;;20.00;18.75;;;;;16.32;71.71;100084.69;5058777;28;45290;-71
2022/06/02 04:55:27;;;;;;;;;18.25;17.25;;;;;16.31;72.14;100096.97;5050021;28;45414;-70
2022/06/02 04:58:03;;;;;;;;;18.25;18.25;;;;;16.30;71.60;100097.88;5047217;28;45331;-70
2022/06/02 05:00:59;;;;;;;;;20.50;19.75;;;;;16.30;71.62;100096.09;5050189;28;45472;-70
2022/06/02 05:03:45;;;;;;;;;19.00;19.00;;;;;16.36;72.00;100097.00;5050250;28;45359;-70
2022/06/02 05:06:19;;;;;;;;;20.50;20.25;;;;;16.44;71.81;100101.34;5049750;28;45478;-72
2022/06/02 05:08:55;;;;;;;;;21.50;20.00;;;;;16.45;71.28;100103.13;5049925;28;45385;-71
2022/06/02 05:11:59;;;;;;;;;24.00;21.50;;;;;16.46;71.04;100098.72;5049845;28;45252;-72
2022/06/02 05:14:43;;;;;;;;;23.75;21.00;;;;;16.50;70.64;100106.63;5049981;28;45528;-71
2022/06/02 05:17:48;;;;;;;;;19.75;19.00;;;;;16.56;71.01;100104.88;5050022;28;45522;-72
2022/06/02 05:20:38;;;;;;;;;20.75;18.75;;;;;16.67;71.07;100108.34;5047059;28;45275;-71
2022/06/02 05:23:41;;;;;;;;;22.00;21.25;;;;;16.82;70.67;100112.75;5047128;28;45418;-71
2022/06/02 05:26:28;;;;;;;;;24.00;20.25;;;;;17.03;70.15;100106.53;5047222;28;45413;-72
2022/06/02 05:28:56;;;;;;;;;25.00;23.00;;;;;17.24;69.63;100095.88;5049514;28;46062;-72
2022/06/02 05:31:40;;;;;;;;;23.50;22.25;;;;;17.40;69.28;100088.75;5052066;28;45534;-71
2022/06/02 05:34:35;;;;;;;;;18.75;18.00;;;;;17.46;68.87;100101.06;5048733;28;45273;-72
2022/06/02 05:37:03;;;;;;;;;20.67;19.00;;;;;17.65;68.42;100108.00;5048211;28;45494;-72
2022/06/02 05:40:03;;;;;;;;;19.00;18.50;;;;;17.85;67.80;100099.13;5047898;28;45382;-72
2022/06/02 05:42:29;;;;;;;;;22.00;19.25;;;;;18.04;67.32;100086.63;5046495;28;45448;-72
2022/06/02 05:45:17;;;;;;;;;20.75;19.50;;;;;18.17;66.83;100090.06;5049160;28;45390;-72
2022/06/02 05:48:02;;;;;;;;;19.75;19.25;;;;;18.22;66.29;100085.59;5047340;28;45415;-72
2022/06/02 05:51:08;;;;;;;;;21.25;18.00;;;;;18.27;66.69;100089.97;5049127;28;46099;-72
2022/06/02 05:54:11;;;;;;;;;20.25;19.25;;;;;18.27;66.74;100089.09;5046610;28;45448;-71
2022/06/02 05:57:00;;;;;;;;;19.00;19.00;;;;;18.37;66.62;100088.09;5049366;28;45184;-71
2022/06/02 05:59:48;;;;;;;;;22.25;20.25;;;;;18.76;65.85;100093.91;5049226;28;45705;-72
2022/06/02 06:02:41;;;;;;;;;48.75;40.25;;;;;20.72;61.44;100094.63;5052795;28;46339;-71
2022/06/02 06:05:25;;;;;;;;;22.75;22.00;;;;;20.67;60.31;100088.50;5057848;28;45557;-69
2022/06/02 06:07:53;;;;;;;;;18.50;17.50;;;;;20.39;61.10;100078.41;5048475;28;45449;-69
2022/06/02 06:10:29;;;;;;;;;23.25;19.75;;;;;20.74;60.89;100082.19;5048645;28;45484;-69
2022/06/02 06:13:20;;;;;;;;;21.75;21.00;;;;;23.36;54.81;100083.84;5048748;28;45501;-69
2022/06/02 06:16:00;;;;;;;;;19.75;18.75;;;;;23.45;53.08;100080.88;5040307;28;45453;-68
2022/06/02 06:18:38;;;;;;;;;16.00;15.75;;;;;22.56;54.90;100076.31;5048694;28;45486;-71
2022/06/02 06:21:04;;;;;;;;;18.50;17.25;;;;;22.38;55.35;100076.78;5049305;28;45662;-69
2022/06/02 06:24:01;;;;;;;;;19.00;18.25;;;;;22.69;54.66;100071.50;5048600;28;47196;-69
2022/06/02 06:26:37;;;;;;;;;22.00;19.75;;;;;22.21;55.28;100074.53;5049444;28;45382;-70
2022/06/02 06:29:43;;;;;;;;;19.00;18.00;;;;;21.97;56.58;100086.66;5049410;28;45448;-70
2022/06/02 06:32:55;;;;;;;;;18.33;17.67;;;;;24.93;49.94;100078.66;5035269;28;45618;-71
2022/06/02 06:35:29;;;;;;;;;18.00;17.00;;;;;28.20;42.90;100084.28;5030055;28;46108;-72
2022/06/02 06:38:23;;;;;;;;;18.25;17.75;;;;;30.16;38.59;100071.84;5058742;28;45839;-72
2022/06/02 06:41:08;;;;;;;;;16.67;15.00;;;;;28.38;41.39;100071.72;5038612;28;45548;-71
2022/06/02 06:44:00;;;;;;;;;18.00;18.00;;;;;27.75;42.89;100079.28;5058028;28;45369;-71
2022/06/02 06:46:50;;;;;;;;;18.33;18.00;;;;;27.72;42.90;100073.19;5048077;28;45508;-73
2022/06/02 06:49:21;;;;;;;;;20.00;18.33;;;;;26.68;44.87;100069.00;5037486;28;45312;-70
2022/06/02 06:52:05;;;;;;;;;17.00;15.67;;;;;26.17;46.14;100072.97;5042821;28;45211;-72
2022/06/02 06:54:57;;;;;;;;;19.00;18.00;;;;;28.01;43.77;100082.50;5057592;28;45342;-74
2022/06/02 06:57:40;;;;;;;;;26.00;25.00;;;;;27.40;43.48;100078.28;5056765;28;45434;-75
2022/06/02 07:00:46;;;;;;;;;24.33;21.00;;;;;26.61;45.65;100086.28;5057227;28;45383;-75
2022/06/02 07:03:15;;;;;;;;;18.00;17.00;;;;;25.83;46.25;100082.38;5057427;28;45410;-75
2022/06/02 07:05:48;;;;;;;;;21.33;21.33;;;;;25.18;47.59;100089.31;5040262;28;45625;-77
2022/06/02 07:08:39;;;;;;;;;20.67;19.33;;;;;24.78;48.97;100090.78;5047421;28;45967;-77
2022/06/02 07:14:26;;;;;;;;;17.67;16.67;;;;;24.56;49.76;100096.03;5042165;28;45485;-76
2022/06/02 07:16:57;;;;;;;;;17.33;16.67;;;;;24.45;50.31;100098.16;5045671;28;45385;-77
2022/06/02 07:19:30;;;;;;;;;17.00;17.00;;;;;24.24;50.57;100084.63;5044832;28;46228;-77
2022/06/02 07:22:33;;;;;;;;;20.67;18.67;;;;;24.09;50.99;100085.13;5047077;28;45473;-78
2022/06/02 07:25:29;;;;;;;;;16.00;14.00;;;;;23.97;51.32;100097.06;5039275;28;45446;-75
2022/06/02 07:28:18;;;;;;;;;18.33;17.00;;;;;23.81;51.77;100091.34;5047412;28;45580;-77
2022/06/02 07:31:05;;;;;;;;;18.00;17.00;;;;;23.29;51.97;100024.50;5047272;28;46082;-78
2022/06/02 07:33:45;;;;;;;;;20.00;18.67;;;;;23.65;52.61;100103.41;5046839;28;45460;-76
2022/06/02 07:36:29;;;;;;;;;18.00;16.33;;;;;23.59;52.44;100101.78;5046822;28;45592;-76
2022/06/02 07:39:19;;;;;;;;;21.00;17.33;;;;;23.50;52.95;100102.09;5062892;28;45536;-73
2022/06/02 07:42:18;;;;;;;;;20.25;19.75;;;;;23.47;52.94;100092.38;5047510;28;45331;-72
2022/06/02 07:45:08;;;;;;;;;15.33;15.33;;;;;23.51;52.52;100095.84;5054749;28;45555;-72
2022/06/02 07:47:52;;;;;;;;;19.00;16.67;;;;;23.89;52.07;100099.97;5056704;28;45407;-73
2022/06/02 07:50:29;;;;;;;;;18.33;17.33;;;;;23.92;51.57;100105.25;5056888;28;45450;-73
2022/06/02 07:53:12;;;;;;;;;15.00;15.00;;;;;23.88;51.55;100100.94;5056269;28;45701;-73
2022/06/02 07:56:11;;;;;;;;;16.67;16.67;;;;;24.21;51.27;100096.28;5056799;28;45240;-73
2022/06/02 07:59:05;;;;;;;;;15.00;14.00;;;;;24.20;50.92;100099.84;5056570;28;45382;-73
2022/06/02 08:02:01;;;;;;;;;19.67;18.33;;;;;23.98;51.28;100099.69;5041521;28;45315;-72
2022/06/02 08:04:49;;;;;;;;;18.33;17.67;;;;;24.01;52.07;100094.28;5056426;28;46063;-73
2022/06/02 08:07:26;;;;;;;;;16.67;16.67;;;;;24.10;51.40;100086.88;5056835;28;45361;-72
2022/06/02 08:10:10;;;;;;;;;16.67;15.33;;;;;24.01;51.30;100099.63;5055692;28;45313;-71
2022/06/02 08:13:03;;;;;;;;;18.00;17.00;;;;;23.88;51.74;100095.59;5056251;28;45286;-71
2022/06/02 08:15:53;;;;;;;;;17.33;15.33;;;;;23.85;52.13;100082.34;5055868;28;45382;-72
2022/06/02 08:18:47;;;;;;;;;16.33;15.33;;;;;24.31;50.85;100063.91;5057094;28;45156;-72
2022/06/02 08:21:25;;;;;;;;;17.33;16.00;;;;;24.68;49.53;100090.25;5056865;28;45585;-71
2022/06/02 08:24:07;;;;;;;;;15.67;15.00;;;;;24.73;50.39;100098.09;5056802;28;45291;-71
2022/06/02 08:26:45;;;;;;;;;18.00;15.00;;;;;24.71;50.49;100106.19;5056433;28;45502;-73
2022/06/02 08:29:36;;;;;;;;;20.67;20.00;;;;;24.88;50.19;100096.69;5056153;28;45227;-71
2022/06/02 08:32:12;;;;;;;;;16.67;16.67;;;;;25.04;49.54;100087.16;5056366;28;45366;-72
2022/06/02 08:34:54;;;;;;;;;20.00;18.00;;;;;25.44;48.69;100083.00;5056481;28;45524;-72
2022/06/02 08:37:37;;;;;;;;;19.00;17.67;;;;;25.14;47.96;100072.53;5056501;28;45528;-71
2022/06/02 08:40:08;;;;;;;;;17.67;17.00;;;;;24.81;48.96;100080.88;5056072;28;45521;-71
2022/06/02 08:42:54;;;;;;;;;19.00;18.00;;;;;25.41;48.81;100085.81;5056385;28;45520;-71
2022/06/02 08:45:40;;;;;;;;;19.67;16.33;;;;;25.79;47.84;100070.91;5056751;28;45474;-71
2022/06/02 08:48:26;;;;;;;;;18.33;18.00;;;;;26.02;47.33;100077.16;5055378;28;46338;-71
2022/06/02 08:51:27;;;;;;;;;19.00;18.33;;;;;25.93;46.88;100078.41;5055858;28;45445;-71
2022/06/02 08:54:26;;;;;;;;;18.33;17.00;;;;;26.03;47.31;100075.38;5055719;28;45566;-71
2022/06/02 08:57:10;;;;;;;;;16.33;16.33;;;;;26.11;47.05;100073.22;5056245;28;45421;-71
2022/06/02 09:00:09;;;;;;;;;19.33;18.00;;;;;26.67;46.22;100069.94;5056055;28;45453;-71
2022/06/02 09:02:41;;;;;;;;;17.00;16.00;;;;;26.97;45.50;100066.81;5055616;28;45525;-71
2022/06/02 09:05:45;;;;;;;;;17.33;16.33;;;;;26.80;45.75;100064.91;5055878;28;45213;-71
2022/06/02 09:08:52;;;;;;;;;18.00;17.33;;;;;26.71;45.50;100068.88;5055820;28;45362;-71
2022/06/02 09:11:55;;;;;;;;;17.00;16.00;;;;;26.53;46.32;100062.47;5050057;28;46588;-71
2022/06/02 09:14:48;;;;;;;;;20.00;19.00;;;;;26.25;46.01;100045.88;5055778;28;45549;-72
2022/06/02 09:17:39;;;;;;;;;19.00;17.67;;;;;26.11;46.71;100054.50;5055416;28;45461;-70
2022/06/02 09:20:28;;;;;;;;;19.33;18.67;;;;;27.34;45.53;100059.78;5055920;28;45402;-71
2022/06/02 09:23:16;;;;;;;;;17.67;16.33;;;;;28.97;42.22;100056.97;5058886;28;46087;-71
2022/06/02 09:25:54;;;;;;;;;24.00;21.33;;;;;30.13;39.12;100044.13;5057412;28;45724;-70
2022/06/02 09:28:20;;;;;;;;;17.00;16.33;;;;;30.62;38.16;100045.75;5059551;28;45507;-70
2022/06/02 09:31:24;;;;;;;;;18.33;17.00;;;;;30.61;37.85;100046.69;5058803;28;45459;-70
2022/06/02 09:34:09;;;;;;;;;16.33;15.33;;;;;30.63;38.33;100049.28;5032467;28;45582;-72
2022/06/02 09:36:57;;;;;;;;;16.33;15.67;;;;;30.11;38.23;100050.59;5053982;28;45485;-73
2022/06/02 09:39:56;;;;;;;;;16.67;15.00;;;;;29.79;39.23;100049.78;5046193;28;45803;-75
2022/06/02 09:43:13;;;;;;;;;17.33;17.33;;;;;30.17;38.70;100031.38;5047008;28;45354;-73
2022/06/02 09:45:58;;;;;;;;;17.67;17.33;;;;;31.96;36.02;100044.44;4974669;28;46253;-74
2022/06/02 09:48:55;;;;;;;;;17.00;16.00;;;;;35.23;30.96;100025.72;4975727;28;45505;-73
2022/06/02 09:51:44;;;;;;;;;19.00;18.00;;;;;36.67;29.04;100041.78;4991166;28;45628;-73
2022/06/02 09:54:34;;;;;;;;;15.33;15.33;;;;;38.01;26.72;100037.91;5037193;28;45532;-75
2022/06/02 09:57:55;;;;;;;;;16.00;15.00;;;;;39.28;25.04;100027.59;5037197;28;46136;-75
2022/06/02 10:00:18;;;;;;;;;16.67;15.67;;;;;39.28;24.66;100030.31;5037093;28;46100;-72
2022/06/02 10:03:11;;;;;;;;;14.67;14.00;;;;;39.78;24.05;100024.41;5037223;28;45406;-73
2022/06/02 10:06:09;;;;;;;;;15.67;14.33;;;;;39.89;25.31;100019.72;5037548;28;45435;-74
2022/06/02 10:09:07;;;;;;;;;15.33;14.33;;;;;41.17;23.32;100028.31;5011572;28;46064;-75
2022/06/02 10:15:18;;;;;;;;;13.67;13.33;;;;;40.30;22.95;100006.41;5012584;28;45480;-78
2022/06/02 10:18:19;;;;;;;;;14.33;14.33;;;;;39.67;24.62;100000.00;5013653;28;45477;-77
2022/06/02 10:21:09;;;;;;;;;15.33;14.67;;;;;38.28;25.48;100000.88;5036706;28;46074;-77
2022/06/02 10:24:11;;;;;;;;;14.33;13.67;;;;;37.90;26.26;100006.19;5036778;28;45447;-75
2022/06/02 10:27:01;;;;;;;;;14.67;14.67;;;;;37.65;26.70;100007.63;5036757;28;45406;-76
2022/06/02 10:29:48;;;;;;;;;15.00;14.67;;;;;38.37;26.29;100005.47;5037553;28;45473;-75
2022/06/02 10:32:47;;;;;;;;;13.33;13.00;;;;;39.35;25.04;100001.34;5036270;28;46140;-73
2022/06/02 10:35:43;;;;;;;;;12.33;12.00;;;;;39.64;24.39;99932.00;5037091;28;45439;-74
2022/06/02 10:38:29;;;;;;;;;13.00;13.00;;;;;39.96;24.68;99979.81;5022136;28;45760;-74
2022/06/02 10:41:17;;;;;;;;;16.00;14.33;;;;;39.80;24.35;99985.13;5037333;28;45321;-77
2022/06/02 10:43:50;;;;;;;;;13.67;12.67;;;;;39.77;24.55;99989.88;5036711;28;46322;-78
2022/06/02 10:46:38;;;;;;;;;13.00;13.00;;;;;39.94;24.04;99985.44;5037360;28;45458;-76
2022/06/02 10:49:27;;;;;;;;;14.67;14.67;;;;;40.49;24.03;99980.72;5037991;28;45457;-71
2022/06/02 10:52:30;;;;;;;;;12.67;12.33;;;;;40.98;23.62;99981.00;5037740;28;45433;-72
2022/06/02 10:55:18;;;;;;;;;14.67;14.00;;;;;40.86;23.40;99982.31;5037510;28;45391;-72
2022/06/02 10:58:37;;;;;;;;;14.00;14.00;;;;;40.43;23.36;99982.25;5037164;28;45386;-71
2022/06/02 11:01:12;;;;;;;;;13.67;13.33;;;;;40.21;24.59;99975.38;4975748;28;45411;-78
2022/06/02 11:03:55;;;;;;;;;13.67;13.67;;;;;39.85;24.33;99969.94;5028572;28;45548;-71
2022/06/02 11:07:00;;;;;;;;;15.00;14.00;;;;;39.37;25.01;99960.22;5037370;28;45464;-74
2022/06/02 11:09:44;;;;;;;;;14.67;14.67;;;;;38.31;26.30;99957.78;5037910;28;45528;-71
2022/06/02 11:12:31;;;;;;;;;14.33;14.33;;;;;37.42;27.47;99966.09;5038196;28;45623;-71
2022/06/02 11:15:17;;;;;;;;;14.67;14.67;;;;;36.40;28.67;99961.56;5038339;28;45390;-71
2022/06/02 11:18:18;;;;;;;;;8.33;8.33;;;;;35.71;29.69;99940.31;5037266;28;46243;-72
2022/06/02 11:20:58;;;;;;;;;13.33;12.33;;;;;35.43;30.16;99949.88;5037564;28;45410;-71
2022/06/02 11:23:42;;;;;;;;;16.00;14.33;;;;;34.93;30.80;99946.78;5037628;28;45236;-71
2022/06/02 11:26:45;;;;;;;;;14.33;14.00;;;;;34.49;31.91;99943.06;5037635;28;45443;-71
2022/06/02 11:29:32;;;;;;;;;15.00;15.00;;;;;34.17;32.74;99941.91;5037176;28;45313;-71
2022/06/02 11:32:28;;;;;;;;;16.33;16.33;;;;;33.62;33.43;99929.88;5037566;28;45467;-74
2022/06/02 11:35:31;;;;;;;;;14.33;14.33;;;;;33.28;33.93;99922.44;5037557;28;45532;-72
2022/06/02 11:38:18;;;;;;;;;15.67;15.67;;;;;33.25;34.43;99927.22;5038001;28;45402;-77
2022/06/02 11:41:15;;;;;;;;;14.00;14.00;;;;;33.12;34.29;99912.88;5037228;28;45257;-71
2022/06/02 11:44:05;;;;;;;;;13.33;13.33;;;;;33.04;34.24;99930.50;5037057;28;45407;-74
2022/06/02 11:46:33;;;;;;;;;17.67;16.67;;;;;32.35;36.09;99932.78;5037335;28;45340;-74
2022/06/02 11:49:26;;;;;;;;;17.67;17.00;;;;;32.35;35.83;99921.06;5037415;28;45489;-71
2022/06/02 11:52:14;;;;;;;;;16.33;16.33;;;;;32.38;36.47;99920.88;5036789;28;45386;-70
2022/06/02 11:54:45;;;;;;;;;16.00;15.33;;;;;32.49;35.76;99924.53;5036976;28;45224;-71
2022/06/02 11:57:19;;;;;;;;;17.00;16.00;;;;;32.70;35.61;99913.19;5037098;28;45496;-71
2022/06/02 12:00:12;;;;;;;;;17.00;16.00;;;;;32.87;35.22;99914.66;5036911;28;45451;-75
2022/06/02 12:03:16;;;;;;;;;17.67;17.00;;;;;32.62;35.77;99924.53;5035831;28;46051;-71
2022/06/02 12:06:03;;;;;;;;;18.67;17.67;;;;;32.20;36.34;99923.88;5005156;28;45580;-71
2022/06/02 12:08:52;;;;;;;;;18.33;17.33;;;;;32.32;36.23;99914.06;5037078;28;45518;-70
2022/06/02 12:11:33;;;;;;;;;20.67;20.00;;;;;32.39;36.85;99915.38;5036856;28;45463;-74
2022/06/02 12:14:08;;;;;;;;;9.33;8.33;;;;;32.49;36.28;99889.41;5036892;28;45531;-71
2022/06/02 12:16:56;;;;;;;;;17.33;17.33;;;;;32.68;36.31;99886.25;5036745;28;45411;-70
2022/06/02 12:19:40;;;;;;;;;16.00;16.00;;;;;32.78;35.84;99899.09;5036643;28;45272;-70
2022/06/02 12:22:33;;;;;;;;;16.00;16.00;;;;;32.75;36.46;99892.09;5036927;28;45394;-70
2022/06/02 12:25:21;;;;;;;;;19.00;18.00;;;;;32.87;36.42;99895.72;5036753;28;46351;-70
2022/06/02 12:28:30;;;;;;;;;16.67;15.67;;;;;32.86;35.80;99896.69;5036595;28;45437;-73
2022/06/02 12:31:15;;;;;;;;;17.67;17.33;;;;;32.70;36.46;99889.69;5036481;28;45276;-71
2022/06/02 12:34:01;;;;;;;;;17.00;16.67;;;;;32.61;36.50;99893.09;5036547;28;45363;-71
2022/06/02 12:36:41;;;;;;;;;14.33;14.33;;;;;32.64;36.28;99881.16;5035744;28;45398;-71
2022/06/02 12:39:28;;;;;;;;;16.33;15.67;;;;;32.64;36.77;99890.13;5035904;28;45434;-72
2022/06/02 12:42:31;;;;;;;;;16.67;16.00;;;;;32.22;37.74;99885.97;5036422;28;45410;-71
2022/06/02 12:45:08;;;;;;;;;16.00;15.00;;;;;32.20;37.30;99871.69;5036290;28;45438;-70
2022/06/02 12:48:18;;;;;;;;;18.33;15.67;;;;;31.77;37.81;99875.50;5036332;28;46099;-72